createdAt,value
2023-01-23T00:01:56.278Z,22.90
2023-01-23T00:04:25.943Z,25.08
2023-01-23T00:06:55.317Z,20.33
2023-01-23T00:09:27.800Z,22.30
2023-01-23T00:11:57.277Z,21.02
2023-01-23T00:14:27.117Z,25.30
2023-01-23T00:16:56.400Z,20.63
2023-01-23T00:19:25.971Z,20.15
2023-01-23T00:21:55.650Z,21.48
2023-01-23T00:24:30.177Z,23.73
2023-01-23T00:27:01.185Z,19.95
2023-01-23T00:29:30.926Z,19.02
2023-01-23T00:32:00.864Z,17.35
2023-01-23T00:34:30.711Z,14.95
2023-01-23T00:37:00.073Z,20.25
2023-01-23T00:39:31.582Z,21.30
2023-01-23T00:42:03.647Z,18.85
2023-01-23T00:44:35.009Z,18.33
2023-01-23T00:47:04.925Z,17.60
2023-01-23T00:49:34.487Z,13.85
2023-01-23T00:52:04.361Z,11.63
2023-01-23T00:54:35.628Z,13.48
2023-01-23T00:57:05.201Z,15.50
2023-01-23T00:59:35.594Z,15.38
2023-01-23T01:02:06.721Z,18.88
2023-01-23T01:04:36.463Z,19.88
2023-01-23T01:07:06.243Z,20.42
2023-01-23T01:09:41.699Z,15.65
2023-01-23T01:12:14.515Z,16.20
2023-01-23T01:14:44.330Z,15.05
2023-01-23T01:17:13.866Z,17.30
2023-01-23T01:19:45.939Z,16.92
2023-01-23T01:22:15.495Z,15.40
2023-01-23T01:24:46.383Z,15.35
2023-01-23T01:27:16.593Z,15.57
2023-01-23T01:29:46.464Z,16.08
2023-01-23T01:32:16.311Z,16.98
2023-01-23T01:34:46.467Z,17.63
2023-01-23T01:37:16.017Z,17.08
2023-01-23T01:39:46.859Z,15.65
2023-01-23T01:42:16.814Z,19.30
2023-01-23T01:44:54.623Z,15.07
2023-01-23T01:47:24.516Z,13.77
2023-01-23T01:49:59.408Z,12.98
2023-01-23T01:52:31.513Z,14.55
2023-01-23T01:55:04.006Z,15.60
2023-01-23T01:57:35.931Z,16.25
2023-01-23T02:00:07.977Z,11.32
2023-01-23T02:02:44.971Z,14.43
2023-01-23T02:05:16.552Z,13.48
2023-01-23T02:07:49.955Z,14.38
2023-01-23T02:10:22.048Z,10.88
2023-01-23T02:12:53.034Z,10.10
2023-01-23T02:15:24.092Z,11.00
2023-01-23T02:17:55.734Z,13.55
2023-01-23T02:20:26.121Z,14.25
2023-01-23T02:23:01.448Z,14.82
2023-01-23T02:25:35.838Z,12.55
2023-01-23T02:28:07.269Z,11.85
2023-01-23T02:30:40.357Z,13.07
2023-01-23T02:33:13.589Z,13.90
2023-01-23T02:35:46.395Z,11.90
2023-01-23T02:38:16.879Z,12.68
2023-01-23T02:40:48.259Z,11.40
2023-01-23T02:43:26.418Z,11.00
2023-01-23T02:46:06.978Z,11.73
2023-01-23T02:48:37.629Z,11.02
2023-01-23T02:51:07.841Z,12.68
2023-01-23T02:53:37.643Z,15.07
2023-01-23T02:56:07.781Z,12.60
2023-01-23T02:58:56.343Z,9.70
2023-01-23T03:01:27.608Z,12.95
2023-01-23T03:04:04.464Z,14.32
2023-01-23T03:06:37.786Z,11.18
2023-01-23T03:09:09.953Z,15.55
2023-01-23T03:11:42.019Z,11.98
2023-01-23T03:14:14.469Z,9.48
2023-01-23T03:16:47.396Z,10.35
2023-01-23T03:19:17.062Z,11.25
2023-01-23T03:21:47.793Z,12.25
2023-01-23T03:24:17.275Z,11.93
2023-01-23T03:26:49.482Z,9.82
2023-01-23T03:29:40.266Z,11.40
2023-01-23T03:32:10.566Z,10.35
2023-01-23T03:34:41.678Z,10.55
2023-01-23T03:37:12.195Z,10.98
2023-01-23T03:40:00.311Z,9.57
2023-01-23T03:42:30.057Z,9.00
2023-01-23T03:45:04.977Z,9.32
2023-01-23T03:47:40.623Z,10.57
2023-01-23T03:50:11.520Z,12.88
2023-01-23T03:52:42.948Z,8.55
2023-01-23T03:55:13.098Z,10.57
2023-01-23T03:57:51.134Z,11.48
2023-01-23T04:00:23.097Z,11.65
2023-01-23T04:03:06.207Z,9.63
2023-01-23T04:05:35.962Z,7.72
2023-01-23T04:08:05.662Z,13.65
2023-01-23T04:10:36.455Z,9.05
2023-01-23T04:13:12.563Z,10.15
2023-01-23T04:15:44.156Z,8.32
2023-01-23T04:18:15.029Z,8.07
2023-01-23T04:20:45.137Z,10.65
2023-01-23T04:23:16.808Z,9.35
2023-01-23T04:25:46.517Z,9.98
2023-01-23T04:28:17.034Z,8.63
2023-01-23T04:31:00.489Z,9.98
2023-01-23T04:33:34.659Z,9.38
2023-01-23T04:36:06.406Z,10.70
2023-01-23T04:38:37.483Z,10.85
2023-01-23T04:41:24.600Z,13.68
2023-01-23T04:44:20.614Z,9.65
2023-01-23T04:47:10.855Z,8.85
2023-01-23T04:49:43.534Z,9.90
2023-01-23T04:52:16.442Z,10.35
2023-01-23T04:54:58.593Z,10.88
2023-01-23T04:57:31.348Z,8.30
2023-01-23T05:00:12.097Z,12.23
2023-01-23T05:02:43.345Z,12.43
2023-01-23T05:05:13.041Z,15.27
2023-01-23T05:07:43.122Z,12.25
2023-01-23T05:10:19.442Z,9.07
2023-01-23T05:15:30.774Z,10.50
2023-01-23T05:18:01.981Z,11.75
2023-01-23T05:20:33.491Z,11.95
2023-01-23T05:23:05.642Z,12.10
2023-01-23T05:25:47.244Z,8.52
2023-01-23T05:28:18.499Z,12.00
2023-01-23T05:30:54.724Z,12.88
2023-01-23T05:33:37.847Z,14.10
2023-01-23T05:36:08.423Z,12.68
2023-01-23T05:38:40.486Z,12.93
2023-01-23T05:41:11.318Z,14.43
2023-01-23T05:44:06.635Z,10.20
2023-01-23T05:46:51.005Z,14.60
2023-01-23T05:49:22.590Z,12.75
2023-01-23T05:51:53.710Z,14.63
2023-01-23T05:54:25.979Z,12.13
2023-01-23T05:56:55.481Z,14.68
2023-01-23T05:59:45.884Z,12.27
2023-01-23T06:02:33.859Z,12.02
2023-01-23T06:05:37.364Z,15.43
2023-01-23T06:08:14.834Z,11.35
2023-01-23T06:10:45.040Z,14.88
2023-01-23T06:13:14.933Z,14.60
2023-01-23T06:15:44.579Z,9.70
2023-01-23T06:18:15.145Z,11.80
2023-01-23T06:20:49.273Z,14.00
2023-01-23T06:23:19.628Z,12.63
2023-01-23T06:25:49.341Z,13.40
2023-01-23T06:28:19.400Z,13.27
2023-01-23T06:30:53.321Z,15.38
2023-01-23T06:34:22.284Z,16.60
2023-01-23T06:37:03.718Z,14.10
2023-01-23T06:42:40.985Z,13.90
2023-01-23T06:45:32.279Z,13.52
2023-01-23T06:48:29.249Z,15.68
2023-01-23T06:51:01.548Z,15.40
2023-01-23T06:53:33.280Z,11.85
2023-01-23T06:56:06.403Z,14.23
2023-01-23T06:58:42.000Z,18.30
2023-01-23T07:01:20.460Z,21.05
2023-01-23T07:04:16.236Z,15.05
2023-01-23T07:06:46.826Z,16.58
2023-01-23T07:12:01.055Z,18.88
2023-01-23T07:14:33.247Z,14.90
2023-01-23T07:17:02.985Z,14.75
2023-01-23T07:19:35.816Z,15.43
2023-01-23T07:22:09.067Z,19.30
2023-01-23T07:24:38.489Z,15.15
2023-01-23T07:27:09.508Z,15.23
2023-01-23T07:29:41.146Z,14.98
2023-01-23T07:32:11.476Z,16.45
2023-01-23T07:34:44.487Z,20.92
2023-01-23T07:37:13.969Z,26.23
2023-01-23T07:39:43.568Z,18.48
2023-01-23T07:42:14.100Z,16.80
2023-01-23T07:47:12.892Z,20.90
2023-01-23T07:49:42.295Z,17.35
2023-01-23T07:52:11.342Z,16.20
2023-01-23T07:54:40.447Z,19.67
2023-01-23T07:57:09.742Z,16.90
2023-01-23T07:59:40.258Z,16.20
2023-01-23T08:02:10.702Z,19.50
2023-01-23T08:04:40.021Z,18.27
2023-01-23T08:07:09.373Z,20.63
2023-01-23T08:09:38.771Z,25.20
2023-01-23T08:12:08.506Z,21.42
2023-01-23T08:14:37.792Z,24.20
2023-01-23T08:17:08.739Z,24.17
2023-01-23T08:19:38.227Z,17.98
2023-01-23T08:22:07.756Z,23.45
2023-01-23T08:24:36.949Z,20.88
2023-01-23T08:27:06.014Z,20.73
2023-01-23T08:29:37.791Z,22.10
2023-01-23T08:32:08.735Z,21.25
2023-01-23T08:34:38.062Z,20.48
2023-01-23T08:37:07.428Z,16.13
2023-01-23T08:39:36.552Z,17.10
2023-01-23T08:42:07.299Z,23.70
2023-01-23T08:44:36.689Z,17.70
2023-01-23T08:47:06.368Z,20.30
2023-01-23T08:49:37.407Z,18.92
2023-01-23T08:52:07.224Z,20.27
2023-01-23T08:54:36.628Z,16.98
2023-01-23T08:57:09.137Z,19.10
2023-01-23T08:59:39.482Z,20.95
2023-01-23T09:02:14.901Z,16.70
2023-01-23T09:04:49.605Z,20.52
2023-01-23T09:07:35.638Z,17.17
2023-01-23T09:10:07.273Z,16.88
2023-01-23T09:15:15.230Z,19.00
2023-01-23T09:17:45.086Z,19.90
2023-01-23T09:20:16.394Z,16.30
2023-01-23T09:22:45.995Z,21.70
2023-01-23T09:25:17.235Z,21.85
2023-01-23T09:27:46.802Z,18.77
2023-01-23T09:30:21.808Z,23.67
2023-01-23T09:32:52.355Z,18.95
2023-01-23T09:35:26.680Z,17.63
2023-01-23T09:38:06.036Z,19.40
2023-01-23T09:40:37.489Z,19.40
2023-01-23T09:43:22.904Z,20.13
2023-01-23T09:45:55.979Z,19.23
2023-01-23T09:48:28.511Z,20.27
2023-01-23T09:51:08.213Z,19.63
2023-01-23T09:53:39.704Z,22.35
2023-01-23T09:56:17.285Z,23.67
2023-01-23T09:58:50.656Z,30.58
2023-01-23T10:01:19.990Z,36.53
2023-01-23T10:03:49.692Z,32.25
2023-01-23T10:06:26.602Z,34.83
2023-01-23T10:09:04.857Z,25.98
2023-01-23T10:11:42.761Z,36.17
2023-01-23T10:14:21.310Z,33.90
2023-01-23T10:16:56.986Z,30.80
2023-01-23T10:19:38.864Z,27.95
2023-01-23T10:22:23.019Z,32.88
2023-01-23T10:24:54.298Z,32.25
2023-01-23T10:27:24.671Z,31.85
2023-01-23T10:29:58.437Z,31.70
2023-01-23T10:32:29.978Z,39.60
2023-01-23T10:35:00.803Z,33.40
2023-01-23T10:37:42.590Z,47.88
2023-01-23T10:40:14.455Z,38.22
2023-01-23T10:42:43.961Z,32.70
2023-01-23T10:45:18.341Z,25.20
2023-01-23T10:47:54.593Z,29.92
2023-01-23T10:50:37.079Z,28.70
2023-01-23T10:53:14.191Z,28.58
2023-01-23T10:55:46.621Z,35.28
2023-01-23T10:58:26.387Z,28.98
2023-01-23T11:00:55.679Z,31.52
2023-01-23T11:03:33.794Z,31.85
2023-01-23T11:06:04.113Z,31.80
2023-01-23T11:08:36.268Z,28.77
2023-01-23T11:11:22.972Z,30.73
2023-01-23T11:14:04.922Z,31.38
2023-01-23T11:16:37.706Z,26.77
2023-01-23T11:19:31.124Z,32.92
2023-01-23T11:22:06.746Z,28.88
2023-01-23T11:24:42.124Z,28.00
2023-01-23T11:27:24.727Z,28.10
2023-01-23T11:30:13.180Z,29.60
2023-01-23T11:32:45.475Z,32.47
2023-01-23T11:35:17.998Z,27.67
2023-01-23T11:37:47.851Z,26.50
2023-01-23T11:40:23.515Z,31.35
2023-01-23T11:42:56.819Z,31.05
2023-01-23T11:45:35.593Z,28.25
2023-01-23T11:48:16.886Z,30.88
2023-01-23T11:50:55.286Z,31.95
2023-01-23T11:53:42.413Z,30.20
2023-01-23T11:56:31.271Z,32.85
2023-01-23T11:59:20.234Z,30.90
2023-01-23T12:02:06.516Z,24.92
2023-01-23T12:05:06.014Z,28.33
2023-01-23T12:07:44.422Z,23.27
2023-01-23T12:10:30.605Z,28.02
2023-01-23T12:13:16.831Z,29.02
2023-01-23T12:16:00.784Z,29.50
2023-01-23T12:18:40.487Z,24.58
2023-01-23T12:21:16.352Z,24.65
2023-01-23T12:24:04.583Z,27.35
2023-01-23T12:27:00.109Z,20.80
2023-01-23T12:29:50.116Z,24.42
2023-01-23T12:32:30.113Z,20.55
2023-01-23T12:35:09.186Z,23.48
2023-01-23T12:37:48.382Z,21.05
2023-01-23T12:40:23.536Z,20.27
2023-01-23T12:42:55.876Z,21.85
2023-01-23T12:45:29.328Z,19.58
2023-01-23T12:48:02.237Z,19.60
2023-01-23T12:50:37.651Z,24.70
2023-01-23T12:53:09.790Z,22.42
2023-01-23T12:55:41.429Z,18.08
2023-01-23T12:58:20.707Z,20.48
2023-01-23T13:01:04.457Z,20.70
2023-01-23T13:03:46.744Z,22.27
2023-01-23T13:06:33.833Z,22.05
2023-01-23T13:09:18.727Z,29.02
2023-01-23T13:12:04.980Z,28.55
2023-01-23T13:15:06.919Z,30.85
2023-01-23T13:17:41.849Z,30.73
2023-01-23T13:20:42.010Z,30.10
2023-01-23T13:23:24.930Z,29.45
2023-01-23T13:26:09.627Z,29.02
2023-01-23T13:28:46.651Z,31.80
2023-01-23T13:31:35.824Z,25.65
2023-01-23T13:34:30.917Z,33.38
2023-01-23T13:37:30.802Z,30.10
2023-01-23T13:40:06.934Z,31.48
2023-01-23T13:42:43.734Z,49.63
2023-01-23T13:45:17.633Z,28.08
2023-01-23T14:21:05.516Z,27.30
2023-01-23T14:23:41.193Z,28.85
2023-01-23T14:26:22.121Z,20.92
2023-01-23T14:28:58.915Z,25.45
2023-01-23T14:31:31.379Z,23.33
2023-01-23T14:34:10.299Z,22.25
2023-01-23T14:36:44.864Z,21.88
2023-01-23T14:39:17.880Z,20.67
2023-01-23T14:42:02.127Z,19.60
2023-01-23T14:44:37.077Z,20.65
2023-01-23T14:47:09.605Z,24.60
2023-01-23T14:49:44.500Z,22.60
2023-01-23T14:52:27.012Z,25.25
2023-01-23T14:55:07.865Z,17.83
2023-01-23T14:57:42.196Z,20.98
2023-01-23T15:00:25.668Z,20.85
2023-01-23T15:03:01.426Z,21.00
2023-01-23T15:05:57.369Z,18.90
2023-01-23T15:08:33.444Z,16.98
2023-01-23T15:11:05.637Z,15.68
2023-01-23T15:13:43.210Z,15.35
2023-01-23T15:16:38.481Z,15.80
2023-01-23T15:19:25.292Z,14.35
2023-01-23T15:22:38.607Z,18.45
2023-01-23T15:25:31.674Z,13.55
2023-01-23T15:28:01.491Z,17.08
2023-01-23T15:30:43.163Z,14.40
2023-01-23T15:33:30.987Z,17.00
2023-01-23T15:36:07.698Z,13.68
2023-01-23T15:38:41.217Z,14.60
2023-01-23T15:41:13.986Z,15.57
2023-01-23T15:43:45.348Z,13.45
2023-01-23T15:46:32.832Z,11.73
2023-01-23T15:49:32.392Z,11.75
2023-01-23T15:52:19.927Z,11.82
2023-01-23T15:54:55.118Z,15.80
2023-01-23T15:57:25.457Z,16.73
2023-01-23T15:59:54.888Z,17.08
2023-01-23T16:02:34.478Z,18.60
2023-01-23T16:05:14.778Z,21.70
2023-01-23T16:07:53.379Z,15.93
2023-01-23T16:10:36.086Z,19.45
2023-01-23T16:13:18.536Z,16.48
2023-01-23T16:15:56.669Z,13.95
2023-01-23T16:18:34.647Z,19.30
2023-01-23T16:21:06.645Z,20.17
2023-01-23T16:23:47.674Z,20.40
2023-01-23T16:26:46.447Z,17.67
2023-01-23T16:29:46.154Z,24.48
2023-01-23T16:32:31.144Z,21.58
2023-01-23T16:35:06.184Z,16.42
2023-01-23T16:37:53.908Z,21.05
2023-01-23T16:40:24.761Z,23.33
2023-01-23T16:43:05.148Z,25.38
2023-01-23T16:45:38.677Z,28.05
2023-01-23T16:48:26.238Z,24.98
2023-01-23T16:51:28.361Z,26.52
2023-01-23T16:54:11.163Z,29.13
2023-01-23T16:57:26.137Z,27.27
2023-01-23T16:59:56.622Z,29.80
2023-01-23T17:02:57.240Z,23.55
2023-01-23T17:05:54.198Z,22.70
2023-01-23T17:08:40.529Z,22.75
2023-01-23T17:11:22.204Z,27.30
2023-01-23T17:14:08.829Z,20.88
2023-01-23T17:16:43.249Z,21.33
2023-01-23T17:19:19.473Z,26.20
2023-01-23T17:21:48.686Z,22.85
2023-01-23T17:24:33.212Z,25.65
2023-01-23T17:27:15.996Z,20.73
2023-01-23T17:30:04.896Z,23.70
2023-01-23T17:32:40.652Z,26.15
2023-01-23T17:35:35.615Z,27.45
2023-01-23T17:38:07.224Z,26.55
2023-01-23T17:41:08.361Z,25.55
2023-01-23T17:43:45.696Z,24.52
2023-01-23T17:49:39.415Z,28.23
2023-01-23T17:52:16.664Z,27.65
2023-01-23T17:54:49.336Z,29.70
2023-01-23T17:57:27.110Z,27.90
2023-01-23T18:00:14.470Z,32.58
2023-01-23T18:03:01.870Z,27.17
2023-01-23T18:09:14.935Z,27.63
2023-01-23T18:11:59.557Z,25.48
2023-01-23T18:14:50.782Z,30.15
2023-01-23T18:17:33.150Z,34.83
2023-01-23T18:20:24.151Z,27.27
2023-01-23T18:22:58.726Z,25.55
2023-01-23T18:25:48.032Z,26.80
2023-01-23T18:28:45.801Z,32.55
2023-01-23T18:31:26.073Z,29.25
2023-01-23T18:34:04.173Z,34.25
2023-01-23T18:37:19.722Z,32.85
2023-01-23T18:39:59.303Z,24.15
2023-01-23T18:42:54.820Z,21.73
2023-01-23T18:45:35.481Z,22.23
2023-01-23T18:48:13.584Z,20.40
2023-01-23T18:51:00.989Z,23.67
2023-01-23T18:53:45.766Z,22.88
2023-01-23T18:56:35.544Z,19.35
2023-01-23T18:59:23.130Z,27.48
2023-01-23T19:02:02.207Z,20.90
2023-01-23T19:04:38.272Z,17.30
2023-01-23T19:07:16.543Z,18.55
2023-01-23T19:09:54.872Z,14.52
2023-01-23T19:12:33.832Z,15.43
2023-01-23T19:15:24.074Z,16.63
2023-01-23T19:18:01.956Z,18.30
2023-01-23T19:23:13.584Z,20.23
2023-01-23T19:25:51.250Z,16.27
2023-01-23T19:28:49.603Z,17.33
2023-01-23T19:31:31.640Z,15.95
2023-01-23T19:36:50.927Z,14.10
2023-01-23T19:39:24.755Z,16.95
2023-01-23T19:41:55.711Z,21.65
2023-01-23T19:44:30.257Z,19.45
2023-01-23T19:47:00.274Z,20.60
2023-01-23T19:49:31.305Z,15.93
2023-01-23T19:52:06.149Z,19.08
2023-01-23T19:54:44.174Z,20.98
2023-01-23T19:57:26.569Z,25.15
2023-01-23T19:59:58.207Z,18.02
2023-01-23T20:02:28.307Z,19.90
2023-01-23T20:04:59.589Z,20.58
2023-01-23T20:07:31.212Z,20.48
2023-01-23T20:10:10.469Z,19.60
2023-01-23T20:12:45.726Z,23.33
2023-01-23T20:15:27.048Z,20.15
2023-01-23T20:18:01.429Z,23.15
2023-01-23T20:20:32.477Z,23.15
2023-01-23T20:23:03.844Z,23.17
2023-01-23T20:25:38.370Z,18.15
2023-01-23T20:28:11.409Z,19.95
2023-01-23T20:30:42.974Z,23.38
2023-01-23T20:33:13.934Z,20.30
2023-01-23T20:35:44.430Z,22.73
2023-01-23T20:38:25.770Z,22.80
2023-01-23T20:41:04.588Z,23.08
2023-01-23T20:43:34.738Z,23.92
2023-01-23T20:46:09.837Z,22.63
2023-01-23T20:48:49.185Z,21.92
2023-01-23T20:53:52.001Z,20.50
2023-01-23T20:56:29.906Z,19.77
2023-01-23T20:59:17.701Z,21.52
2023-01-23T21:02:05.903Z,13.90
2023-01-23T21:04:36.475Z,20.85
2023-01-23T21:07:07.331Z,19.08
2023-01-23T21:09:38.283Z,22.25
2023-01-23T21:12:11.368Z,17.08
2023-01-23T21:14:45.680Z,22.63
2023-01-23T21:17:17.000Z,19.55
2023-01-23T21:19:49.328Z,18.58
2023-01-23T21:22:19.034Z,17.45
2023-01-23T21:24:48.718Z,21.45
2023-01-23T21:27:20.925Z,20.00
2023-01-23T21:29:54.329Z,19.83
2023-01-23T21:32:35.536Z,20.80
2023-01-23T21:35:05.759Z,17.17
2023-01-23T21:37:37.762Z,19.02
2023-01-23T21:40:09.821Z,19.10
2023-01-23T21:45:14.187Z,18.52
2023-01-23T21:47:45.371Z,16.15
2023-01-23T21:50:17.757Z,16.63
2023-01-23T21:52:50.467Z,18.23
2023-01-23T21:55:27.859Z,17.92
2023-01-23T21:58:00.851Z,20.88
2023-01-23T22:00:50.104Z,16.95
2023-01-23T22:03:22.403Z,17.27
2023-01-23T22:05:54.954Z,16.33
2023-01-23T22:08:26.244Z,22.48
2023-01-23T22:10:58.257Z,17.23
2023-01-23T22:13:31.191Z,23.00
2023-01-23T22:16:05.517Z,26.88
2023-01-23T22:18:46.265Z,19.95
2023-01-23T22:21:19.484Z,24.23
2023-01-23T22:24:01.726Z,22.48
2023-01-23T22:26:34.002Z,21.83
2023-01-23T22:29:06.562Z,22.65
2023-01-23T22:31:47.828Z,26.00
2023-01-23T22:34:23.171Z,24.43
2023-01-23T22:36:58.397Z,23.88
2023-01-23T22:39:41.520Z,26.08
2023-01-23T22:42:15.207Z,20.65
2023-01-23T22:44:54.181Z,22.80
2023-01-23T22:47:25.082Z,25.65
2023-01-23T22:50:01.487Z,23.80
2023-01-23T22:52:34.743Z,21.35
2023-01-23T22:55:27.018Z,25.50
2023-01-23T22:57:58.037Z,25.45
2023-01-23T23:00:29.985Z,25.05
2023-01-23T23:02:59.905Z,23.88
2023-01-23T23:05:37.287Z,26.30
2023-01-23T23:08:10.337Z,24.85
2023-01-23T23:10:40.843Z,26.95
2023-01-23T23:13:12.062Z,25.02
2023-01-23T23:15:44.075Z,24.52
2023-01-23T23:18:14.039Z,27.35
2023-01-23T23:20:50.169Z,23.48
2023-01-23T23:23:25.128Z,23.40
2023-01-23T23:25:56.092Z,23.85
2023-01-23T23:28:27.331Z,27.05
2023-01-23T23:31:01.494Z,21.85
2023-01-23T23:33:38.374Z,21.40
2023-01-23T23:36:12.399Z,26.23
2023-01-23T23:38:42.604Z,25.33
2023-01-23T23:41:17.178Z,24.08
2023-01-23T23:43:49.743Z,23.10
2023-01-23T23:46:21.856Z,23.65
2023-01-23T23:51:27.908Z,22.67
2023-01-23T23:53:57.675Z,22.38
2023-01-23T23:56:28.133Z,20.90
2023-01-23T23:58:58.277Z,22.13
